createdAt,value
2022-08-25T00:01:38.042Z,101779.47
2022-08-25T00:04:08.825Z,101773.75
2022-08-25T00:06:35.502Z,101769.00
2022-08-25T00:09:02.067Z,101770.13
2022-08-25T00:11:30.979Z,101765.94
2022-08-25T00:14:01.216Z,101764.44
2022-08-25T00:16:31.170Z,101766.22
2022-08-25T00:19:01.409Z,101757.56
2022-08-25T00:21:28.671Z,101762.91
2022-08-25T00:23:55.175Z,101755.19
2022-08-25T00:26:21.879Z,101754.66
2022-08-25T00:28:48.386Z,101755.50
2022-08-25T00:31:18.501Z,101761.41
2022-08-25T00:33:46.392Z,101757.09
2022-08-25T00:36:14.740Z,101760.75
2022-08-25T00:38:43.244Z,101752.34
2022-08-25T00:41:12.282Z,101751.78
2022-08-25T00:43:41.688Z,101763.88
2022-08-25T00:46:09.914Z,101758.00
2022-08-25T00:48:38.683Z,101758.28
2022-08-25T00:51:11.754Z,101761.41
2022-08-25T00:53:39.633Z,101764.38
2022-08-25T00:56:06.340Z,101755.28
2022-08-25T00:58:35.469Z,101752.91
2022-08-25T01:01:02.038Z,101754.44
2022-08-25T01:03:33.207Z,101750.25
2022-08-25T01:06:04.979Z,101747.88
2022-08-25T01:08:32.756Z,101751.66
2022-08-25T01:11:03.268Z,101751.94
2022-08-25T01:13:34.099Z,101756.31
2022-08-25T01:16:01.309Z,101755.47
2022-08-25T01:18:28.589Z,101753.94
2022-08-25T01:20:58.056Z,101747.06
2022-08-25T01:23:25.268Z,101742.72
2022-08-25T01:26:00.030Z,101736.84
2022-08-25T01:28:26.740Z,101740.81
2022-08-25T01:30:53.417Z,101742.88
2022-08-25T01:33:20.027Z,101739.53
2022-08-25T01:35:47.751Z,101737.16
2022-08-25T01:38:14.834Z,101743.47
2022-08-25T01:40:42.811Z,101741.94
2022-08-25T01:43:15.388Z,101752.03
2022-08-25T01:45:46.163Z,101754.00
2022-08-25T01:48:14.245Z,101746.16
2022-08-25T01:50:41.542Z,101735.50
2022-08-25T01:53:23.111Z,101743.63
2022-08-25T01:55:53.075Z,101737.75
2022-08-25T01:58:30.191Z,101738.19
2022-08-25T02:01:00.102Z,101737.63
2022-08-25T02:03:28.157Z,101742.41
2022-08-25T02:05:56.214Z,101738.03
2022-08-25T02:08:24.610Z,101739.88
2022-08-25T02:10:54.055Z,101747.28
2022-08-25T02:13:20.882Z,101738.47
2022-08-25T02:15:56.499Z,101732.75
2022-08-25T02:18:25.253Z,101734.72
2022-08-25T02:20:52.588Z,101736.38
2022-08-25T02:23:19.246Z,101734.72
2022-08-25T02:25:47.432Z,101737.38
2022-08-25T02:28:14.280Z,101738.34
2022-08-25T02:30:43.811Z,101741.97
2022-08-25T02:33:10.983Z,101739.47
2022-08-25T02:35:37.912Z,101735.97
2022-08-25T02:38:06.162Z,101731.78
2022-08-25T02:40:33.056Z,101733.59
2022-08-25T02:43:00.411Z,101727.56
2022-08-25T02:45:28.165Z,101727.56
2022-08-25T02:47:54.666Z,101725.16
2022-08-25T02:50:21.199Z,101720.09
2022-08-25T02:52:50.678Z,101716.22
2022-08-25T02:55:18.271Z,101725.03
2022-08-25T02:57:46.398Z,101717.59
2022-08-25T03:00:16.232Z,101722.94
2022-08-25T03:02:46.813Z,101710.63
2022-08-25T03:05:15.080Z,101721.25
2022-08-25T03:07:42.593Z,101717.06
2022-08-25T03:10:13.482Z,101715.38
2022-08-25T03:12:41.690Z,101710.06
2022-08-25T03:15:13.386Z,101699.56
2022-08-25T03:17:40.747Z,101697.16
2022-08-25T03:20:08.224Z,101695.63
2022-08-25T03:22:34.974Z,101690.75
2022-08-25T03:25:24.040Z,101698.00
2022-08-25T03:27:51.885Z,101695.50
2022-08-25T03:30:19.357Z,101689.19
2022-08-25T03:32:46.280Z,101689.34
2022-08-25T03:35:12.816Z,101689.47
2022-08-25T03:37:39.683Z,101690.72
2022-08-25T03:40:15.208Z,101682.19
2022-08-25T03:42:45.224Z,101675.34
2022-08-25T03:45:14.225Z,101683.47
2022-08-25T03:47:41.095Z,101673.94
2022-08-25T03:50:10.469Z,101673.53
2022-08-25T03:52:42.374Z,101669.72
2022-08-25T03:55:11.606Z,101673.63
2022-08-25T03:57:39.200Z,101672.25
2022-08-25T04:00:08.159Z,101673.63
2022-08-25T04:02:34.774Z,101671.13
2022-08-25T04:05:01.633Z,101669.44
2022-08-25T04:07:28.268Z,101663.53
2022-08-25T04:09:56.176Z,101664.69
2022-08-25T04:12:23.193Z,101659.38
2022-08-25T04:14:50.531Z,101672.50
2022-08-25T04:17:17.738Z,101668.28
2022-08-25T04:19:44.311Z,101664.94
2022-08-25T04:22:11.068Z,101657.38
2022-08-25T04:24:40.300Z,101659.59
2022-08-25T04:27:06.958Z,101660.69
2022-08-25T04:29:33.702Z,101652.03
2022-08-25T04:32:00.293Z,101655.78
2022-08-25T04:34:29.681Z,101649.91
2022-08-25T04:36:59.850Z,101656.31
2022-08-25T04:39:26.408Z,101649.72
2022-08-25T04:41:53.087Z,101649.16
2022-08-25T04:44:19.592Z,101645.69
2022-08-25T04:46:46.199Z,101652.09
2022-08-25T04:49:12.811Z,101656.72
2022-08-25T04:51:40.879Z,101646.78
2022-08-25T04:54:10.575Z,101649.16
2022-08-25T04:56:39.293Z,101650.44
2022-08-25T04:59:08.737Z,101653.69
2022-08-25T05:01:36.021Z,101647.25
2022-08-25T05:04:04.831Z,101657.19
2022-08-25T05:06:32.180Z,101656.53
2022-08-25T05:08:59.941Z,101657.66
2022-08-25T05:11:27.825Z,101650.69
2022-08-25T05:13:55.981Z,101643.84
2022-08-25T05:16:24.587Z,101646.78
2022-08-25T05:18:52.008Z,101649.63
2022-08-25T05:21:22.266Z,101655.78
2022-08-25T05:23:49.293Z,101655.63
2022-08-25T05:26:20.271Z,101657.84
2022-08-25T05:28:49.858Z,101661.34
2022-08-25T05:31:17.618Z,101660.50
2022-08-25T05:33:44.442Z,101663.59
2022-08-25T05:36:13.039Z,101662.84
2022-08-25T05:38:41.750Z,101664.75
2022-08-25T05:41:13.181Z,101670.31
2022-08-25T05:43:41.957Z,101672.00
2022-08-25T05:46:09.794Z,101666.97
2022-08-25T05:48:36.909Z,101672.88
2022-08-25T05:51:06.626Z,101667.56
2022-08-25T05:53:34.204Z,101665.19
2022-08-25T05:56:02.054Z,101672.53
2022-08-25T05:58:30.251Z,101672.56
2022-08-25T06:01:19.561Z,101673.94
2022-08-25T06:03:54.729Z,101667.97
2022-08-25T06:06:26.267Z,101675.59
2022-08-25T06:08:52.980Z,101666.34
2022-08-25T06:11:22.319Z,101674.72
2022-08-25T06:13:51.705Z,101669.59
2022-08-25T06:16:18.545Z,101676.22
2022-08-25T06:18:45.083Z,101676.94
2022-08-25T06:21:14.160Z,101678.81
2022-08-25T06:23:41.737Z,101680.38
2022-08-25T06:26:19.529Z,101678.31
2022-08-25T06:28:47.582Z,101675.59
2022-08-25T06:31:14.238Z,101678.94
2022-08-25T06:33:40.852Z,101684.47
2022-08-25T06:36:07.578Z,101680.94
2022-08-25T06:38:34.471Z,101692.03
2022-08-25T06:41:06.362Z,101686.38
2022-08-25T06:43:34.907Z,101690.72
2022-08-25T06:46:20.801Z,101687.00
2022-08-25T06:48:47.998Z,101686.91
2022-08-25T06:51:17.025Z,101680.16
2022-08-25T06:53:46.029Z,101665.28
2022-08-25T06:56:12.771Z,101667.44
2022-08-25T06:58:44.703Z,101671.66
2022-08-25T07:01:26.225Z,101679.84
2022-08-25T07:03:59.136Z,101675.22
2022-08-25T07:06:31.615Z,101676.09
2022-08-25T07:08:59.560Z,101672.63
2022-08-25T07:11:26.434Z,101666.00
2022-08-25T07:13:53.227Z,101671.84
2022-08-25T07:16:20.585Z,101672.69
2022-08-25T07:18:48.651Z,101674.22
2022-08-25T07:21:15.758Z,101672.91
2022-08-25T07:23:42.589Z,101677.25
2022-08-25T07:29:08.408Z,101676.06
2022-08-25T07:31:35.279Z,101673.88
2022-08-25T07:34:20.595Z,101676.69
2022-08-25T07:36:48.053Z,101672.13
2022-08-25T07:39:14.786Z,101674.50
2022-08-25T07:41:42.247Z,101665.16
2022-08-25T07:44:10.873Z,101675.72
2022-08-25T07:46:38.581Z,101673.16
2022-08-25T07:49:09.209Z,101674.66
2022-08-25T07:52:04.599Z,101662.78
2022-08-25T07:54:34.243Z,101667.78
2022-08-25T07:57:01.377Z,101662.38
2022-08-25T07:59:27.825Z,101659.84
2022-08-25T08:01:54.327Z,101664.50
2022-08-25T08:04:20.793Z,101664.28
2022-08-25T08:06:47.297Z,101659.34
2022-08-25T08:09:13.871Z,101653.78
2022-08-25T08:11:53.510Z,101663.16
2022-08-25T08:14:20.490Z,101653.38
2022-08-25T08:16:47.119Z,101655.41
2022-08-25T08:19:13.598Z,101653.94
2022-08-25T08:21:40.398Z,101649.41
2022-08-25T08:24:14.864Z,101650.91
2022-08-25T08:26:58.576Z,101648.81
2022-08-25T08:29:25.855Z,101641.28
2022-08-25T08:31:52.396Z,101648.91
2022-08-25T08:34:18.857Z,101640.63
2022-08-25T08:36:45.496Z,101639.44
2022-08-25T08:39:12.662Z,101647.13
2022-08-25T08:42:17.350Z,101642.22
2022-08-25T08:44:46.883Z,101637.78
2022-08-25T08:47:36.123Z,101632.56
2022-08-25T08:50:33.155Z,101637.22
2022-08-25T08:53:21.770Z,101639.44
2022-08-25T08:55:52.963Z,101632.94
2022-08-25T08:58:50.352Z,101619.97
2022-08-25T09:01:40.251Z,101629.63
2022-08-25T09:04:31.136Z,101627.34
2022-08-25T09:07:01.364Z,101629.53
2022-08-25T09:09:35.774Z,101634.16
2022-08-25T09:12:29.354Z,101627.63
2022-08-25T09:15:20.199Z,101626.34
2022-08-25T09:17:54.791Z,101616.50
2022-08-25T09:20:24.440Z,101622.22
2022-08-25T09:23:15.957Z,101623.78
2022-08-25T09:26:12.809Z,101631.59
2022-08-25T09:28:55.383Z,101621.16
2022-08-25T09:31:38.692Z,101624.31
2022-08-25T09:34:16.956Z,101618.16
2022-08-25T09:36:45.472Z,101618.22
2022-08-25T09:39:12.309Z,101623.66
2022-08-25T09:41:51.565Z,101625.19
2022-08-25T09:44:18.762Z,101610.84
2022-08-25T09:47:02.295Z,101609.91
2022-08-25T09:49:45.817Z,101607.38
2022-08-25T09:52:36.389Z,101606.78
2022-08-25T09:55:27.349Z,101602.88
2022-08-25T09:57:56.771Z,101599.81
2022-08-25T10:00:26.717Z,101596.94
2022-08-25T10:03:26.783Z,101588.47
2022-08-25T10:06:07.756Z,101589.16
2022-08-25T10:08:56.040Z,101589.22
2022-08-25T10:11:31.868Z,101583.22
2022-08-25T10:14:06.367Z,101586.13
2022-08-25T10:16:36.195Z,101573.09
2022-08-25T10:19:13.053Z,101577.66
2022-08-25T10:21:42.497Z,101578.09
2022-08-25T10:24:12.335Z,101564.22
2022-08-25T10:26:59.893Z,101566.75
2022-08-25T10:29:46.695Z,101561.56
2022-08-25T10:32:24.215Z,101560.31
2022-08-25T10:34:56.258Z,101553.31
2022-08-25T10:37:35.884Z,101547.72
2022-08-25T10:40:21.178Z,101544.81
2022-08-25T10:43:24.573Z,101543.78
2022-08-25T10:46:02.981Z,101542.53
2022-08-25T10:48:48.579Z,101530.06
2022-08-25T10:51:41.096Z,101532.56
2022-08-25T10:54:35.286Z,101523.81
2022-08-25T10:57:17.260Z,101522.38
2022-08-25T11:00:14.180Z,101512.84
2022-08-25T11:03:02.361Z,101511.75
2022-08-25T11:05:40.217Z,101508.00
2022-08-25T11:08:14.427Z,101509.25
2022-08-25T11:10:47.965Z,101509.06
2022-08-25T11:13:40.301Z,101505.94
2022-08-25T11:16:18.612Z,101495.56
2022-08-25T11:19:13.482Z,101503.41
2022-08-25T11:22:00.518Z,101501.31
2022-08-25T11:24:36.511Z,101493.38
2022-08-25T11:27:06.981Z,101498.38
2022-08-25T11:29:37.779Z,101496.72
2022-08-25T11:32:06.555Z,101488.34
2022-08-25T11:34:36.457Z,101487.91
2022-08-25T11:37:30.601Z,101491.94
2022-08-25T11:40:08.824Z,101485.72
2022-08-25T11:42:51.833Z,101484.06
2022-08-25T11:45:35.210Z,101476.16
2022-08-25T11:48:11.829Z,101481.56
2022-08-25T11:51:05.740Z,101472.41
2022-08-25T11:54:10.189Z,101474.00
2022-08-25T11:56:41.451Z,101467.25
2022-08-25T11:59:08.684Z,101470.97
2022-08-25T12:01:44.179Z,101473.56
2022-08-25T12:04:15.997Z,101476.06
2022-08-25T12:07:08.720Z,101471.13
2022-08-25T12:09:55.562Z,101475.38
2022-08-25T12:12:38.527Z,101472.34
2022-08-25T12:15:15.093Z,101467.56
2022-08-25T12:17:42.372Z,101468.56
2022-08-25T12:20:08.949Z,101471.28
2022-08-25T12:22:35.864Z,101469.34
2022-08-25T12:25:33.840Z,101468.56
2022-08-25T12:28:34.964Z,101471.84
2022-08-25T12:31:15.886Z,101466.38
2022-08-25T12:33:56.374Z,101465.88
2022-08-25T12:36:33.366Z,101461.78
2022-08-25T12:39:24.576Z,101453.56
2022-08-25T12:41:55.418Z,101446.22
2022-08-25T12:44:41.576Z,101448.03
2022-08-25T12:47:31.845Z,101449.69
2022-08-25T12:50:32.641Z,101454.66
2022-08-25T12:53:28.110Z,101459.56
2022-08-25T12:56:20.069Z,101449.69
2022-08-25T12:59:07.256Z,101446.97
2022-08-25T13:01:49.001Z,101437.22
2022-08-25T13:04:41.670Z,101446.06
2022-08-25T13:07:15.459Z,101443.91
2022-08-25T13:10:07.607Z,101444.69
2022-08-25T13:12:43.216Z,101435.09
2022-08-25T13:15:24.866Z,101436.69
2022-08-25T13:17:51.419Z,101425.22
2022-08-25T13:20:25.273Z,101426.22
2022-08-25T13:23:06.499Z,101420.63
2022-08-25T13:25:34.599Z,101414.47
2022-08-25T13:28:06.348Z,101415.69
2022-08-25T13:30:35.917Z,101413.25
2022-08-25T13:33:20.604Z,101405.66
2022-08-25T13:35:52.196Z,101410.81
2022-08-25T13:38:19.548Z,101405.19
2022-08-25T13:40:46.435Z,101403.06
2022-08-25T13:43:14.365Z,101395.56
2022-08-25T13:45:47.426Z,101400.78
2022-08-25T13:48:31.099Z,101408.91
2022-08-25T13:51:09.028Z,101409.09
2022-08-25T13:53:37.438Z,101402.25
2022-08-25T13:56:04.304Z,101390.78
2022-08-25T13:58:44.632Z,101392.94
2022-08-25T14:01:48.312Z,101393.91
2022-08-25T14:04:24.203Z,101393.63
2022-08-25T14:07:12.775Z,101387.59
2022-08-25T14:09:51.570Z,101386.53
2022-08-25T14:12:48.090Z,101387.97
2022-08-25T14:15:22.123Z,101379.41
2022-08-25T14:18:04.406Z,101379.34
2022-08-25T14:20:33.848Z,101380.09
2022-08-25T14:23:12.796Z,101379.59
2022-08-25T14:25:43.079Z,101375.53
2022-08-25T14:28:14.076Z,101371.84
2022-08-25T14:30:46.520Z,101370.19
2022-08-25T14:33:14.841Z,101369.75
2022-08-25T14:35:46.301Z,101370.09
2022-08-25T14:38:14.283Z,101363.25
2022-08-25T14:40:41.689Z,101374.31
2022-08-25T14:43:09.631Z,101370.75
2022-08-25T14:45:39.140Z,101365.44
2022-08-25T14:48:10.463Z,101365.63
2022-08-25T14:50:38.005Z,101363.16
2022-08-25T14:53:09.176Z,101358.97
2022-08-25T14:55:38.929Z,101355.72
2022-08-25T14:58:06.949Z,101350.25
2022-08-25T15:00:41.256Z,101353.16
2022-08-25T15:03:08.111Z,101353.59
2022-08-25T15:05:34.885Z,101352.41
2022-08-25T15:08:19.911Z,101354.69
2022-08-25T15:10:47.303Z,101354.09
2022-08-25T15:13:15.035Z,101358.84
2022-08-25T15:15:52.465Z,101358.91
2022-08-25T15:18:20.878Z,101354.47
2022-08-25T15:20:50.143Z,101349.53
2022-08-25T15:23:18.435Z,101352.53
2022-08-25T15:25:47.445Z,101348.47
2022-08-25T15:28:17.101Z,101350.97
2022-08-25T15:30:45.777Z,101349.50
2022-08-25T15:33:13.552Z,101345.41
2022-08-25T15:35:41.514Z,101348.16
2022-08-25T15:38:11.255Z,101346.28
2022-08-25T15:40:39.062Z,101342.38
2022-08-25T15:43:16.971Z,101353.19
2022-08-25T15:45:44.345Z,101346.94
2022-08-25T15:48:13.077Z,101339.25
2022-08-25T15:50:40.682Z,101335.75
2022-08-25T15:53:08.371Z,101337.47
2022-08-25T15:55:40.153Z,101339.94
2022-08-25T15:58:07.192Z,101339.53
2022-08-25T16:00:35.767Z,101328.34
2022-08-25T16:03:02.345Z,101334.41
2022-08-25T16:05:30.156Z,101328.78
2022-08-25T16:07:56.925Z,101333.53
2022-08-25T16:10:23.751Z,101336.03
2022-08-25T16:12:50.307Z,101339.94
2022-08-25T16:15:16.896Z,101327.69
2022-08-25T16:17:45.924Z,101329.97
2022-08-25T16:20:25.662Z,101326.25
2022-08-25T16:22:52.137Z,101328.94
2022-08-25T16:25:18.689Z,101326.25
2022-08-25T16:27:46.629Z,101326.25
2022-08-25T16:30:16.773Z,101328.72
2022-08-25T16:32:44.306Z,101317.50
2022-08-25T16:35:11.312Z,101324.16
2022-08-25T16:37:37.917Z,101323.75
2022-08-25T16:40:05.244Z,101320.03
2022-08-25T16:42:31.818Z,101327.13
2022-08-25T16:44:59.576Z,101324.44
2022-08-25T16:47:26.966Z,101323.00
2022-08-25T16:49:53.702Z,101320.28
2022-08-25T16:52:38.913Z,101317.59
2022-08-25T16:55:13.565Z,101320.50
2022-08-25T16:57:55.204Z,101319.47
2022-08-25T17:00:25.002Z,101316.78
2022-08-25T17:03:04.741Z,101318.44
2022-08-25T17:05:33.363Z,101317.19
2022-08-25T17:08:19.792Z,101316.38
2022-08-25T17:10:46.557Z,101321.97
2022-08-25T17:13:13.865Z,101329.47
2022-08-25T17:15:42.882Z,101323.03
2022-08-25T17:18:11.252Z,101325.94
2022-08-25T17:20:40.048Z,101334.44
2022-08-25T17:23:11.856Z,101328.81
2022-08-25T17:25:42.973Z,101329.88
2022-08-25T17:28:12.018Z,101336.69
2022-08-25T17:30:39.243Z,101339.56
2022-08-25T17:33:06.006Z,101344.13
2022-08-25T17:35:37.541Z,101345.81
2022-08-25T17:38:04.051Z,101340.81
2022-08-25T17:40:33.537Z,101342.63
2022-08-25T17:43:01.485Z,101342.84
2022-08-25T17:45:28.226Z,101346.56
2022-08-25T17:47:55.602Z,101346.31
2022-08-25T17:50:22.403Z,101348.75
2022-08-25T17:52:49.045Z,101345.41
2022-08-25T17:55:15.626Z,101347.44
2022-08-25T17:57:42.367Z,101343.69
2022-08-25T18:00:12.046Z,101344.47
2022-08-25T18:02:40.588Z,101333.50
2022-08-25T18:05:07.421Z,101341.72
2022-08-25T18:07:33.919Z,101349.75
2022-08-25T18:10:00.450Z,101346.38
2022-08-25T18:12:27.474Z,101346.13
2022-08-25T18:14:54.205Z,101352.13
2022-08-25T18:17:21.994Z,101358.66
2022-08-25T18:19:50.752Z,101354.06
2022-08-25T18:22:17.633Z,101362.09
2022-08-25T18:24:44.492Z,101360.75
2022-08-25T18:27:12.330Z,101360.06
2022-08-25T18:29:43.485Z,101358.06
2022-08-25T18:32:10.075Z,101366.91
2022-08-25T18:34:39.008Z,101360.44
2022-08-25T18:37:25.513Z,101363.06
2022-08-25T18:40:10.336Z,101372.28
2022-08-25T18:42:37.032Z,101368.50
2022-08-25T18:45:05.928Z,101370.09
2022-08-25T18:47:33.082Z,101374.56
2022-08-25T18:50:04.213Z,101389.56
2022-08-25T18:52:31.680Z,101385.13
2022-08-25T18:54:59.264Z,101388.94
2022-08-25T18:57:27.464Z,101388.69
2022-08-25T18:59:55.380Z,101387.38
2022-08-25T19:02:21.908Z,101390.78
2022-08-25T19:04:52.605Z,101395.91
2022-08-25T19:07:19.452Z,101395.59
2022-08-25T19:09:46.206Z,101401.09
2022-08-25T19:12:22.312Z,101398.09
2022-08-25T19:14:49.614Z,101408.56
2022-08-25T19:17:17.117Z,101413.03
2022-08-25T19:19:43.616Z,101425.00
2022-08-25T19:22:38.040Z,101429.59
2022-08-25T19:24:58.079Z,101428.00
2022-08-25T19:27:24.968Z,101422.72
2022-08-25T19:29:52.158Z,101430.66
2022-08-25T19:32:18.824Z,101436.44
2022-08-25T19:34:47.292Z,101428.66
2022-08-25T19:37:18.287Z,101433.91
2022-08-25T19:39:53.146Z,101436.09
2022-08-25T19:42:36.999Z,101440.16
2022-08-25T19:45:07.706Z,101438.38
2022-08-25T19:47:35.003Z,101451.31
2022-08-25T19:50:01.738Z,101458.03
2022-08-25T19:52:28.834Z,101452.53
2022-08-25T19:54:55.830Z,101467.31
2022-08-25T19:57:28.439Z,101466.13
2022-08-25T20:00:21.582Z,101464.16
2022-08-25T20:02:48.652Z,101475.88
2022-08-25T20:05:16.842Z,101476.72
2022-08-25T20:07:52.346Z,101467.56
2022-08-25T20:10:20.200Z,101477.25
2022-08-25T20:12:47.516Z,101481.97
2022-08-25T20:15:16.441Z,101476.28
2022-08-25T20:17:43.761Z,101477.97
2022-08-25T20:20:15.832Z,101486.00
2022-08-25T20:22:42.766Z,101488.22
2022-08-25T20:25:13.994Z,101496.56
2022-08-25T20:27:53.667Z,101493.72
2022-08-25T20:30:24.227Z,101487.22
2022-08-25T20:32:53.152Z,101481.72
2022-08-25T20:35:21.422Z,101491.34
2022-08-25T20:37:54.618Z,101494.19
2022-08-25T20:40:25.550Z,101495.69
2022-08-25T20:42:52.660Z,101510.06
2022-08-25T20:45:24.415Z,101515.38
2022-08-25T20:47:51.229Z,101513.88
2022-08-25T20:50:18.704Z,101511.34
2022-08-25T20:52:45.285Z,101518.66
2022-08-25T20:55:12.376Z,101516.34
2022-08-25T20:57:39.477Z,101524.31
2022-08-25T21:00:07.496Z,101521.63
2022-08-25T21:02:34.118Z,101528.09
2022-08-25T21:05:02.014Z,101532.56
2022-08-25T21:07:28.804Z,101532.22
2022-08-25T21:09:57.241Z,101534.84
2022-08-25T21:12:23.891Z,101530.81
2022-08-25T21:14:51.841Z,101537.63
2022-08-25T21:17:19.521Z,101527.94
2022-08-25T21:22:18.445Z,101545.41
2022-08-25T21:24:45.192Z,101543.75
2022-08-25T21:27:11.606Z,101533.72
2022-08-25T21:29:38.361Z,101538.53
2022-08-25T21:32:11.741Z,101554.72
2022-08-25T21:34:38.246Z,101553.97
2022-08-25T21:37:05.351Z,101551.09
2022-08-25T21:39:33.154Z,101561.25
2022-08-25T21:42:00.606Z,101562.69
2022-08-25T21:44:28.605Z,101563.22
2022-08-25T21:46:56.064Z,101568.53
2022-08-25T21:49:24.062Z,101567.47
2022-08-25T21:52:00.050Z,101568.16
2022-08-25T21:54:29.534Z,101573.09
2022-08-25T21:57:04.592Z,101577.00
2022-08-25T21:59:37.968Z,101564.00
2022-08-25T22:02:07.960Z,101573.66
2022-08-25T22:04:36.769Z,101574.66
2022-08-25T22:07:03.363Z,101567.94
2022-08-25T22:09:30.682Z,101582.78
2022-08-25T22:11:58.627Z,101573.56
2022-08-25T22:14:26.894Z,101576.41
2022-08-25T22:16:54.494Z,101571.91
2022-08-25T22:19:21.570Z,101570.03
2022-08-25T22:21:50.128Z,101572.28
2022-08-25T22:24:18.122Z,101565.75
2022-08-25T22:26:49.081Z,101570.09
2022-08-25T22:29:24.136Z,101562.41
2022-08-25T22:31:57.828Z,101568.03
2022-08-25T22:34:30.742Z,101572.66
2022-08-25T22:36:59.835Z,101564.31
2022-08-25T22:39:29.579Z,101566.56
2022-08-25T22:41:56.130Z,101571.59
2022-08-25T22:44:24.360Z,101560.94
2022-08-25T22:46:51.163Z,101570.94
2022-08-25T22:49:18.080Z,101571.53
2022-08-25T22:51:44.651Z,101579.22
2022-08-25T22:54:15.156Z,101576.00
2022-08-25T22:56:42.352Z,101586.66
2022-08-25T22:59:12.051Z,101586.66
2022-08-25T23:01:39.638Z,101592.13
2022-08-25T23:04:06.679Z,101586.69
2022-08-25T23:06:36.598Z,101579.56
2022-08-25T23:09:06.030Z,101590.06
2022-08-25T23:11:32.468Z,101585.63
2022-08-25T23:14:05.544Z,101590.25
2022-08-25T23:16:32.823Z,101585.22
2022-08-25T23:18:59.744Z,101586.22
2022-08-25T23:21:53.899Z,101592.38
2022-08-25T23:24:30.117Z,101591.53
2022-08-25T23:26:58.469Z,101592.00
2022-08-25T23:29:25.213Z,101594.50
2022-08-25T23:31:51.808Z,101594.19
2022-08-25T23:34:21.554Z,101596.16
2022-08-25T23:36:48.742Z,101603.75
2022-08-25T23:39:15.175Z,101591.75
2022-08-25T23:41:41.901Z,101597.19
2022-08-25T23:44:11.911Z,101602.69
2022-08-25T23:46:44.772Z,101592.31
2022-08-25T23:49:12.261Z,101590.63
2022-08-25T23:51:38.869Z,101595.66
2022-08-25T23:54:09.670Z,101595.13
2022-08-25T23:56:44.790Z,101597.66
2022-08-25T23:59:18.473Z,101591.75
